Climax Springs, MO (65324)

9:07 AM CDT on March 28, 2017 (GMT -0500)
Johnson Marina Cove | | Change Station

Elev 712 ft 38.19 °N, 92.92 °W | Updated 41 seconds ago

Overcast
Overcast
51.9 °F
Feels Like 51.9 °F
N
2.0
Wind Variable Wind from East

Today
High -- | Low -- °F
--% Chance of Precip.
Yesterday
High -- | Low -- °F
Precip. -- in
Pressure 30.06 in
Visibility 1.5 miles
Clouds Overcast 400 ft
Dew Point 49 °F
Humidity 90%
Rainfall 0.00 in
Snow Depth Not available.
7:02 AM 7:31 PM
New Moon, 0% visible
METAR KGLY 281355Z AUTO 06005KT 1 1/2SM BR OVC004 10/10 A3006 RMK AO2
Pressure 30.06 in
Visibility 1.5 miles
Clouds Overcast 400 ft
Dew Point 49 °F
Humidity 90%
Rainfall 0.00 in
Snow Depth Not available.
7:02 AM 7:31 PM
New Moon, 0% visible
METAR KGLY 281355Z AUTO 06005KT 1 1/2SM BR OVC004 10/10 A3006 RMK AO2

Get Severe Weather Alerts

Thanks for signing up!

Be on the lookout for a verification email in your inbox.

You'll start receiving the daily forecast at 8 AM.

×

10-Day Weather Forecast

Almanac

Astronomy

Mar. 28, 2017 Rise Set
Actual Time
Civil Twilight
Nautical Twilight
Astronomical Twilight
Moon
Length of Visible Light
Length of Day
Tomorrow will be .
, % of the Moon is Illuminated

Today's Extremes

State Highs State Lows

Community

WunderPhotos

Upload Photos

1,962,540 photos uploaded!

WunderBlog® & News

Nearby

Air Quality

  Air Quality AQ Index Pollutant
Not available.

Snow Depth

Station Depth Elevation

Earthquake Activity

City Distance Mag. Time & Date
Minimum magnitude displayed is 2.5.

Earthquake Activity

City Distance Mag. Time & Date
Minimum magnitude displayed is 2.5.

Coastal Water Temperatures

Place Temperature

Stations

Nearby Weather Stations

Station Location Temp. Windchill Dew Point Humidity Wind Precip. Elev Updated Type
                   

Watches & Warnings

There are currently no watches in effect.